sensor_id;sensor_type;location;lat;lon;timestamp;P1;durP1;ratioP1;P2;durP2;ratioP2
59167;SDS011;44948;55.046;73.266;2023-02-01T00:00:17;28.30;;;10.60;;
59167;SDS011;44948;55.046;73.266;2023-02-01T00:01:59;30.80;;;9.60;;
59167;SDS011;44948;55.046;73.266;2023-02-01T00:03:41;26.20;;;8.10;;
59167;SDS011;44948;55.046;73.266;2023-02-01T00:05:23;27.13;;;8.98;;
59167;SDS011;44948;55.046;73.266;2023-02-01T00:07:04;35.92;;;12.27;;
59167;SDS011;44948;55.046;73.266;2023-02-01T00:08:47;33.08;;;12.15;;
59167;SDS011;44948;55.046;73.266;2023-02-01T00:10:29;34.70;;;12.07;;
59167;SDS011;44948;55.046;73.266;2023-02-01T00:12:10;28.55;;;12.25;;
59167;SDS011;44948;55.046;73.266;2023-02-01T00:13:53;32.63;;;12.27;;
59167;SDS011;44948;55.046;73.266;2023-02-01T00:15:34;27.55;;;11.07;;
59167;SDS011;44948;55.046;73.266;2023-02-01T00:17:16;37.53;;;11.95;;
59167;SDS011;44948;55.046;73.266;2023-02-01T00:19:00;35.10;;;11.13;;
59167;SDS011;44948;55.046;73.266;2023-02-01T00:20:45;30.25;;;9.77;;
59167;SDS011;44948;55.046;73.266;2023-02-01T00:22:27;29.52;;;10.30;;
59167;SDS011;44948;55.046;73.266;2023-02-01T00:24:09;23.13;;;10.15;;
59167;SDS011;44948;55.046;73.266;2023-02-01T00:25:51;31.75;;;11.13;;
59167;SDS011;44948;55.046;73.266;2023-02-01T00:27:33;30.52;;;10.68;;
59167;SDS011;44948;55.046;73.266;2023-02-01T00:29:15;35.63;;;12.00;;
59167;SDS011;44948;55.046;73.266;2023-02-01T00:32:39;32.90;;;10.20;;
59167;SDS011;44948;55.046;73.266;2023-02-01T00:34:21;36.92;;;10.57;;
59167;SDS011;44948;55.046;73.266;2023-02-01T00:36:04;29.17;;;10.65;;
59167;SDS011;44948;55.046;73.266;2023-02-01T00:37:46;33.25;;;9.93;;
59167;SDS011;44948;55.046;73.266;2023-02-01T00:39:28;32.53;;;9.68;;
59167;SDS011;44948;55.046;73.266;2023-02-01T00:41:11;21.90;;;9.48;;
59167;SDS011;44948;55.046;73.266;2023-02-01T00:42:53;28.10;;;9.45;;
59167;SDS011;44948;55.046;73.266;2023-02-01T00:44:35;27.38;;;9.57;;
59167;SDS011;44948;55.046;73.266;2023-02-01T00:46:17;35.22;;;10.73;;
59167;SDS011;44948;55.046;73.266;2023-02-01T00:48:00;35.15;;;11.77;;
59167;SDS011;44948;55.046;73.266;2023-02-01T00:49:41;30.65;;;11.25;;
59167;SDS011;44948;55.046;73.266;2023-02-01T00:51:24;31.23;;;10.73;;
59167;SDS011;44948;55.046;73.266;2023-02-01T00:53:06;33.65;;;11.18;;
59167;SDS011;44948;55.046;73.266;2023-02-01T00:54:48;29.75;;;10.25;;
59167;SDS011;44948;55.046;73.266;2023-02-01T00:56:30;34.53;;;10.73;;
59167;SDS011;44948;55.046;73.266;2023-02-01T00:58:12;26.58;;;10.02;;
59167;SDS011;44948;55.046;73.266;2023-02-01T00:59:54;29.63;;;10.40;;
59167;SDS011;44948;55.046;73.266;2023-02-01T01:01:35;34.35;;;10.43;;
59167;SDS011;44948;55.046;73.266;2023-02-01T01:03:17;39.47;;;11.23;;
59167;SDS011;44948;55.046;73.266;2023-02-01T01:04:59;35.45;;;10.90;;
59167;SDS011;44948;55.046;73.266;2023-02-01T01:06:41;28.55;;;10.68;;
59167;SDS011;44948;55.046;73.266;2023-02-01T01:08:22;31.05;;;9.48;;
59167;SDS011;44948;55.046;73.266;2023-02-01T01:10:04;28.55;;;8.60;;
59167;SDS011;44948;55.046;73.266;2023-02-01T01:11:47;31.23;;;10.82;;
59167;SDS011;44948;55.046;73.266;2023-02-01T01:13:28;28.33;;;9.60;;
59167;SDS011;44948;55.046;73.266;2023-02-01T01:15:10;32.42;;;9.13;;
59167;SDS011;44948;55.046;73.266;2023-02-01T01:16:53;28.60;;;9.93;;
59167;SDS011;44948;55.046;73.266;2023-02-01T01:18:35;31.85;;;10.60;;
59167;SDS011;44948;55.046;73.266;2023-02-01T01:20:18;28.50;;;9.68;;
59167;SDS011;44948;55.046;73.266;2023-02-01T01:22:02;34.85;;;10.55;;
59167;SDS011;44948;55.046;73.266;2023-02-01T01:23:45;28.17;;;9.68;;
59167;SDS011;44948;55.046;73.266;2023-02-01T01:25:27;34.13;;;10.75;;
59167;SDS011;44948;55.046;73.266;2023-02-01T01:27:08;31.67;;;10.63;;
59167;SDS011;44948;55.046;73.266;2023-02-01T01:28:51;31.13;;;10.93;;
59167;SDS011;44948;55.046;73.266;2023-02-01T01:30:34;30.75;;;11.82;;
59167;SDS011;44948;55.046;73.266;2023-02-01T01:32:15;27.63;;;9.60;;
59167;SDS011;44948;55.046;73.266;2023-02-01T01:33:58;24.88;;;9.05;;
59167;SDS011;44948;55.046;73.266;2023-02-01T01:35:41;30.05;;;10.43;;
59167;SDS011;44948;55.046;73.266;2023-02-01T01:37:23;32.15;;;10.02;;
59167;SDS011;44948;55.046;73.266;2023-02-01T01:39:04;31.80;;;10.15;;
59167;SDS011;44948;55.046;73.266;2023-02-01T01:40:47;33.10;;;10.27;;
59167;SDS011;44948;55.046;73.266;2023-02-01T01:42:29;35.33;;;12.93;;
59167;SDS011;44948;55.046;73.266;2023-02-01T01:46:15;37.50;;;11.60;;
59167;SDS011;44948;55.046;73.266;2023-02-01T01:48:30;34.50;;;12.30;;
59167;SDS011;44948;55.046;73.266;2023-02-01T01:50:05;37.22;;;11.77;;
59167;SDS011;44948;55.046;73.266;2023-02-01T01:53:31;31.45;;;10.10;;
59167;SDS011;44948;55.046;73.266;2023-02-01T01:55:15;34.45;;;12.00;;
59167;SDS011;44948;55.046;73.266;2023-02-01T01:58:39;38.05;;;13.55;;
59167;SDS011;44948;55.046;73.266;2023-02-01T02:00:21;39.25;;;12.93;;
59167;SDS011;44948;55.046;73.266;2023-02-01T02:02:06;43.70;;;13.77;;
59167;SDS011;44948;55.046;73.266;2023-02-01T02:03:49;43.15;;;14.30;;
59167;SDS011;44948;55.046;73.266;2023-02-01T02:05:31;39.05;;;13.80;;
59167;SDS011;44948;55.046;73.266;2023-02-01T02:07:16;39.90;;;13.95;;
59167;SDS011;44948;55.046;73.266;2023-02-01T02:08:58;43.22;;;15.30;;
59167;SDS011;44948;55.046;73.266;2023-02-01T02:10:40;38.97;;;13.70;;
59167;SDS011;44948;55.046;73.266;2023-02-01T02:12:42;43.15;;;13.45;;
59167;SDS011;44948;55.046;73.266;2023-02-01T02:14:24;38.65;;;14.13;;
59167;SDS011;44948;55.046;73.266;2023-02-01T02:19:33;38.38;;;13.63;;
59167;SDS011;44948;55.046;73.266;2023-02-01T02:21:30;35.55;;;12.70;;
59167;SDS011;44948;55.046;73.266;2023-02-01T02:27:18;39.97;;;13.00;;
59167;SDS011;44948;55.046;73.266;2023-02-01T02:29:25;38.08;;;12.05;;
59167;SDS011;44948;55.046;73.266;2023-02-01T02:35:06;40.53;;;13.30;;
59167;SDS011;44948;55.046;73.266;2023-02-01T02:37:04;31.58;;;12.32;;
59167;SDS011;44948;55.046;73.266;2023-02-01T02:38:59;39.30;;;13.63;;
59167;SDS011;44948;55.046;73.266;2023-02-01T02:44:57;47.25;;;14.05;;
59167;SDS011;44948;55.046;73.266;2023-02-01T02:47:02;41.78;;;13.93;;
59167;SDS011;44948;55.046;73.266;2023-02-01T02:49:09;40.63;;;13.98;;
59167;SDS011;44948;55.046;73.266;2023-02-01T02:53:04;40.45;;;13.85;;
59167;SDS011;44948;55.046;73.266;2023-02-01T02:55:05;44.97;;;14.48;;
59167;SDS011;44948;55.046;73.266;2023-02-01T02:56:50;40.55;;;13.27;;
59167;SDS011;44948;55.046;73.266;2023-02-01T02:58:50;45.78;;;14.15;;
59167;SDS011;44948;55.046;73.266;2023-02-01T03:00:51;39.22;;;13.18;;
59167;SDS011;44948;55.046;73.266;2023-02-01T03:02:55;43.83;;;13.98;;
59167;SDS011;44948;55.046;73.266;2023-02-01T03:04:56;50.25;;;14.38;;
59167;SDS011;44948;55.046;73.266;2023-02-01T03:06:39;47.55;;;14.02;;
59167;SDS011;44948;55.046;73.266;2023-02-01T03:08:24;39.50;;;13.48;;
59167;SDS011;44948;55.046;73.266;2023-02-01T03:10:07;44.80;;;14.85;;
59167;SDS011;44948;55.046;73.266;2023-02-01T03:11:53;42.63;;;13.63;;
59167;SDS011;44948;55.046;73.266;2023-02-01T03:13:56;40.15;;;14.63;;
59167;SDS011;44948;55.046;73.266;2023-02-01T03:15:41;42.83;;;16.02;;
59167;SDS011;44948;55.046;73.266;2023-02-01T03:17:27;45.90;;;15.23;;
59167;SDS011;44948;55.046;73.266;2023-02-01T03:19:22;46.25;;;16.52;;
59167;SDS011;44948;55.046;73.266;2023-02-01T03:21:06;42.10;;;15.23;;
59167;SDS011;44948;55.046;73.266;2023-02-01T03:22:50;45.45;;;14.77;;
59167;SDS011;44948;55.046;73.266;2023-02-01T03:24:34;45.85;;;16.23;;
59167;SDS011;44948;55.046;73.266;2023-02-01T03:26:19;49.95;;;15.55;;
59167;SDS011;44948;55.046;73.266;2023-02-01T03:28:04;60.30;;;16.17;;
59167;SDS011;44948;55.046;73.266;2023-02-01T03:29:49;45.97;;;16.13;;
59167;SDS011;44948;55.046;73.266;2023-02-01T03:31:32;41.50;;;15.95;;
59167;SDS011;44948;55.046;73.266;2023-02-01T03:33:17;46.30;;;15.63;;
59167;SDS011;44948;55.046;73.266;2023-02-01T03:35:04;54.58;;;17.70;;
59167;SDS011;44948;55.046;73.266;2023-02-01T03:37:04;45.00;;;15.80;;
59167;SDS011;44948;55.046;73.266;2023-02-01T03:39:02;54.20;;;18.40;;
59167;SDS011;44948;55.046;73.266;2023-02-01T03:40:46;48.20;;;16.90;;
59167;SDS011;44948;55.046;73.266;2023-02-01T03:42:49;45.90;;;16.17;;
59167;SDS011;44948;55.046;73.266;2023-02-01T03:44:34;48.72;;;18.50;;
59167;SDS011;44948;55.046;73.266;2023-02-01T03:46:35;70.10;;;21.95;;
59167;SDS011;44948;55.046;73.266;2023-02-01T03:48:19;65.72;;;22.83;;
59167;SDS011;44948;55.046;73.266;2023-02-01T03:50:05;75.60;;;26.15;;
59167;SDS011;44948;55.046;73.266;2023-02-01T03:51:48;80.18;;;25.73;;
59167;SDS011;44948;55.046;73.266;2023-02-01T03:53:32;84.72;;;29.45;;
59167;SDS011;44948;55.046;73.266;2023-02-01T03:55:21;87.25;;;29.23;;
59167;SDS011;44948;55.046;73.266;2023-02-01T03:57:07;80.07;;;26.23;;
59167;SDS011;44948;55.046;73.266;2023-02-01T03:58:50;76.90;;;26.40;;
59167;SDS011;44948;55.046;73.266;2023-02-01T04:00:45;87.97;;;26.38;;
59167;SDS011;44948;55.046;73.266;2023-02-01T04:02:28;70.25;;;24.27;;
59167;SDS011;44948;55.046;73.266;2023-02-01T04:04:10;75.72;;;23.42;;
59167;SDS011;44948;55.046;73.266;2023-02-01T04:05:54;68.57;;;23.92;;
59167;SDS011;44948;55.046;73.266;2023-02-01T04:07:40;72.65;;;23.48;;
59167;SDS011;44948;55.046;73.266;2023-02-01T04:09:22;69.60;;;23.15;;
59167;SDS011;44948;55.046;73.266;2023-02-01T04:11:03;73.93;;;24.38;;
59167;SDS011;44948;55.046;73.266;2023-02-01T04:12:45;79.03;;;25.02;;
59167;SDS011;44948;55.046;73.266;2023-02-01T04:14:27;76.60;;;23.95;;
59167;SDS011;44948;55.046;73.266;2023-02-01T04:16:09;77.50;;;24.30;;
59167;SDS011;44948;55.046;73.266;2023-02-01T04:17:51;74.60;;;24.20;;
59167;SDS011;44948;55.046;73.266;2023-02-01T04:19:33;60.92;;;22.55;;
59167;SDS011;44948;55.046;73.266;2023-02-01T04:21:15;74.72;;;23.10;;
59167;SDS011;44948;55.046;73.266;2023-02-01T04:22:56;62.05;;;21.05;;
59167;SDS011;44948;55.046;73.266;2023-02-01T04:24:38;56.15;;;18.60;;
59167;SDS011;44948;55.046;73.266;2023-02-01T04:26:21;48.58;;;17.08;;
59167;SDS011;44948;55.046;73.266;2023-02-01T04:28:03;60.55;;;17.70;;
59167;SDS011;44948;55.046;73.266;2023-02-01T04:29:46;51.55;;;17.80;;
59167;SDS011;44948;55.046;73.266;2023-02-01T04:31:27;51.50;;;16.10;;
59167;SDS011;44948;55.046;73.266;2023-02-01T04:33:09;49.78;;;16.85;;
59167;SDS011;44948;55.046;73.266;2023-02-01T04:34:55;52.63;;;17.92;;
59167;SDS011;44948;55.046;73.266;2023-02-01T04:36:37;48.15;;;17.88;;
59167;SDS011;44948;55.046;73.266;2023-02-01T04:38:19;69.05;;;22.20;;
59167;SDS011;44948;55.046;73.266;2023-02-01T04:40:01;119.85;;;34.33;;
59167;SDS011;44948;55.046;73.266;2023-02-01T04:41:44;99.40;;;30.17;;
59167;SDS011;44948;55.046;73.266;2023-02-01T04:43:26;65.85;;;21.48;;
59167;SDS011;44948;55.046;73.266;2023-02-01T04:45:09;59.90;;;20.88;;
59167;SDS011;44948;55.046;73.266;2023-02-01T04:46:50;58.78;;;20.98;;
59167;SDS011;44948;55.046;73.266;2023-02-01T04:48:32;71.47;;;23.85;;
59167;SDS011;44948;55.046;73.266;2023-02-01T04:50:14;74.72;;;24.73;;
59167;SDS011;44948;55.046;73.266;2023-02-01T04:51:56;55.63;;;21.63;;
59167;SDS011;44948;55.046;73.266;2023-02-01T04:53:38;72.45;;;23.60;;
59167;SDS011;44948;55.046;73.266;2023-02-01T04:55:20;70.78;;;23.95;;
59167;SDS011;44948;55.046;73.266;2023-02-01T04:57:01;58.83;;;21.73;;
59167;SDS011;44948;55.046;73.266;2023-02-01T04:58:43;62.30;;;20.83;;
59167;SDS011;44948;55.046;73.266;2023-02-01T05:00:25;57.90;;;20.27;;
59167;SDS011;44948;55.046;73.266;2023-02-01T05:02:07;46.45;;;18.05;;
59167;SDS011;44948;55.046;73.266;2023-02-01T05:03:49;57.95;;;20.60;;
59167;SDS011;44948;55.046;73.266;2023-02-01T05:05:31;72.75;;;21.98;;
59167;SDS011;44948;55.046;73.266;2023-02-01T05:07:12;64.53;;;23.70;;
59167;SDS011;44948;55.046;73.266;2023-02-01T05:08:54;78.40;;;25.10;;
59167;SDS011;44948;55.046;73.266;2023-02-01T05:10:36;74.30;;;22.70;;
59167;SDS011;44948;55.046;73.266;2023-02-01T05:12:18;69.40;;;20.90;;
59167;SDS011;44948;55.046;73.266;2023-02-01T05:14:18;59.38;;;20.85;;
59167;SDS011;44948;55.046;73.266;2023-02-01T05:15:59;57.47;;;19.55;;
59167;SDS011;44948;55.046;73.266;2023-02-01T05:17:41;70.90;;;24.58;;
59167;SDS011;44948;55.046;73.266;2023-02-01T05:19:23;69.15;;;23.38;;
59167;SDS011;44948;55.046;73.266;2023-02-01T05:21:05;61.05;;;19.92;;
59167;SDS011;44948;55.046;73.266;2023-02-01T05:22:47;52.95;;;19.33;;
59167;SDS011;44948;55.046;73.266;2023-02-01T05:24:29;59.45;;;22.60;;
59167;SDS011;44948;55.046;73.266;2023-02-01T05:26:11;65.05;;;22.27;;
59167;SDS011;44948;55.046;73.266;2023-02-01T05:27:53;75.38;;;25.52;;
59167;SDS011;44948;55.046;73.266;2023-02-01T05:29:38;69.78;;;24.83;;
59167;SDS011;44948;55.046;73.266;2023-02-01T05:31:20;60.33;;;21.52;;
59167;SDS011;44948;55.046;73.266;2023-02-01T05:33:02;59.88;;;21.15;;
59167;SDS011;44948;55.046;73.266;2023-02-01T05:34:44;58.65;;;21.10;;
59167;SDS011;44948;55.046;73.266;2023-02-01T05:36:26;55.55;;;19.80;;
59167;SDS011;44948;55.046;73.266;2023-02-01T05:38:08;59.75;;;21.52;;
59167;SDS011;44948;55.046;73.266;2023-02-01T05:39:50;60.97;;;20.98;;
59167;SDS011;44948;55.046;73.266;2023-02-01T05:41:32;61.47;;;21.67;;
59167;SDS011;44948;55.046;73.266;2023-02-01T05:43:14;61.38;;;22.00;;
59167;SDS011;44948;55.046;73.266;2023-02-01T05:44:56;53.00;;;20.48;;
59167;SDS011;44948;55.046;73.266;2023-02-01T05:46:38;64.35;;;22.45;;
59167;SDS011;44948;55.046;73.266;2023-02-01T05:48:20;56.45;;;21.00;;
59167;SDS011;44948;55.046;73.266;2023-02-01T05:50:02;57.28;;;22.83;;
59167;SDS011;44948;55.046;73.266;2023-02-01T05:51:45;62.97;;;22.17;;
59167;SDS011;44948;55.046;73.266;2023-02-01T05:53:27;49.72;;;19.30;;
59167;SDS011;44948;55.046;73.266;2023-02-01T05:55:09;46.53;;;20.05;;
59167;SDS011;44948;55.046;73.266;2023-02-01T05:56:51;53.40;;;18.92;;
59167;SDS011;44948;55.046;73.266;2023-02-01T05:58:33;51.50;;;19.45;;
59167;SDS011;44948;55.046;73.266;2023-02-01T06:00:15;59.42;;;19.58;;
59167;SDS011;44948;55.046;73.266;2023-02-01T06:01:56;48.20;;;17.67;;
59167;SDS011;44948;55.046;73.266;2023-02-01T06:03:38;47.30;;;18.75;;
59167;SDS011;44948;55.046;73.266;2023-02-01T06:05:20;60.15;;;19.58;;
59167;SDS011;44948;55.046;73.266;2023-02-01T06:07:02;51.75;;;18.33;;
59167;SDS011;44948;55.046;73.266;2023-02-01T06:08:45;56.42;;;19.70;;
59167;SDS011;44948;55.046;73.266;2023-02-01T06:10:27;53.00;;;17.70;;
59167;SDS011;44948;55.046;73.266;2023-02-01T06:12:09;48.65;;;17.52;;
59167;SDS011;44948;55.046;73.266;2023-02-01T06:13:51;52.13;;;18.30;;
59167;SDS011;44948;55.046;73.266;2023-02-01T06:15:33;52.58;;;18.48;;
59167;SDS011;44948;55.046;73.266;2023-02-01T06:17:15;49.70;;;17.67;;
59167;SDS011;44948;55.046;73.266;2023-02-01T06:18:56;46.08;;;17.42;;
59167;SDS011;44948;55.046;73.266;2023-02-01T06:20:39;51.20;;;18.60;;
59167;SDS011;44948;55.046;73.266;2023-02-01T06:22:21;45.60;;;17.25;;
59167;SDS011;44948;55.046;73.266;2023-02-01T06:24:03;52.43;;;17.93;;
59167;SDS011;44948;55.046;73.266;2023-02-01T06:25:45;46.78;;;17.98;;
59167;SDS011;44948;55.046;73.266;2023-02-01T06:27:27;50.38;;;17.60;;
59167;SDS011;44948;55.046;73.266;2023-02-01T06:29:10;48.95;;;18.17;;
59167;SDS011;44948;55.046;73.266;2023-02-01T06:30:51;45.20;;;16.85;;
59167;SDS011;44948;55.046;73.266;2023-02-01T06:32:33;47.72;;;18.58;;
59167;SDS011;44948;55.046;73.266;2023-02-01T06:34:15;44.40;;;17.25;;
59167;SDS011;44948;55.046;73.266;2023-02-01T06:35:57;44.78;;;17.27;;
59167;SDS011;44948;55.046;73.266;2023-02-01T06:37:40;47.95;;;17.05;;
59167;SDS011;44948;55.046;73.266;2023-02-01T06:39:21;63.88;;;23.05;;
59167;SDS011;44948;55.046;73.266;2023-02-01T06:41:04;57.60;;;20.05;;
59167;SDS011;44948;55.046;73.266;2023-02-01T06:42:47;55.77;;;19.17;;
59167;SDS011;44948;55.046;73.266;2023-02-01T06:44:29;47.53;;;16.70;;
59167;SDS011;44948;55.046;73.266;2023-02-01T06:46:12;50.58;;;17.67;;
59167;SDS011;44948;55.046;73.266;2023-02-01T06:47:54;45.83;;;17.98;;
59167;SDS011;44948;55.046;73.266;2023-02-01T06:49:35;47.58;;;18.15;;
59167;SDS011;44948;55.046;73.266;2023-02-01T06:51:21;50.30;;;17.77;;
59167;SDS011;44948;55.046;73.266;2023-02-01T06:53:03;49.90;;;20.10;;
59167;SDS011;44948;55.046;73.266;2023-02-01T06:54:45;55.38;;;19.65;;
59167;SDS011;44948;55.046;73.266;2023-02-01T06:56:26;58.22;;;19.67;;
59167;SDS011;44948;55.046;73.266;2023-02-01T06:58:08;59.13;;;20.75;;
59167;SDS011;44948;55.046;73.266;2023-02-01T06:59:50;44.20;;;18.52;;
59167;SDS011;44948;55.046;73.266;2023-02-01T07:01:32;46.53;;;19.05;;
59167;SDS011;44948;55.046;73.266;2023-02-01T07:03:14;52.45;;;18.48;;
59167;SDS011;44948;55.046;73.266;2023-02-01T07:04:56;50.70;;;18.98;;
59167;SDS011;44948;55.046;73.266;2023-02-01T07:06:38;52.25;;;17.90;;
59167;SDS011;44948;55.046;73.266;2023-02-01T07:08:20;53.38;;;19.13;;
59167;SDS011;44948;55.046;73.266;2023-02-01T07:10:02;55.13;;;19.15;;
59167;SDS011;44948;55.046;73.266;2023-02-01T07:11:45;58.72;;;19.63;;
59167;SDS011;44948;55.046;73.266;2023-02-01T07:13:26;61.53;;;21.63;;
59167;SDS011;44948;55.046;73.266;2023-02-01T07:15:08;60.15;;;22.95;;
59167;SDS011;44948;55.046;73.266;2023-02-01T07:16:50;53.70;;;20.55;;
59167;SDS011;44948;55.046;73.266;2023-02-01T07:18:32;48.47;;;18.58;;
59167;SDS011;44948;55.046;73.266;2023-02-01T07:20:15;52.53;;;18.13;;
59167;SDS011;44948;55.046;73.266;2023-02-01T07:21:57;52.72;;;19.25;;
59167;SDS011;44948;55.046;73.266;2023-02-01T07:23:39;47.65;;;19.88;;
59167;SDS011;44948;55.046;73.266;2023-02-01T07:25:21;56.97;;;20.05;;
59167;SDS011;44948;55.046;73.266;2023-02-01T07:27:03;54.75;;;18.95;;
59167;SDS011;44948;55.046;73.266;2023-02-01T07:28:46;47.55;;;19.42;;
59167;SDS011;44948;55.046;73.266;2023-02-01T07:30:28;63.85;;;23.60;;
59167;SDS011;44948;55.046;73.266;2023-02-01T07:32:10;73.28;;;26.95;;
59167;SDS011;44948;55.046;73.266;2023-02-01T07:33:52;64.60;;;24.23;;
59167;SDS011;44948;55.046;73.266;2023-02-01T07:35:34;55.47;;;22.33;;
59167;SDS011;44948;55.046;73.266;2023-02-01T07:37:16;55.30;;;20.90;;
59167;SDS011;44948;55.046;73.266;2023-02-01T07:38:58;60.30;;;21.27;;
59167;SDS011;44948;55.046;73.266;2023-02-01T07:40:40;57.03;;;19.97;;
59167;SDS011;44948;55.046;73.266;2023-02-01T07:42:22;56.75;;;21.42;;
59167;SDS011;44948;55.046;73.266;2023-02-01T07:44:04;58.53;;;20.48;;
59167;SDS011;44948;55.046;73.266;2023-02-01T07:45:50;57.63;;;21.23;;
59167;SDS011;44948;55.046;73.266;2023-02-01T07:47:32;55.45;;;20.88;;
59167;SDS011;44948;55.046;73.266;2023-02-01T07:49:14;62.72;;;25.38;;
59167;SDS011;44948;55.046;73.266;2023-02-01T07:50:59;69.45;;;25.52;;
59167;SDS011;44948;55.046;73.266;2023-02-01T07:52:42;60.10;;;22.77;;
59167;SDS011;44948;55.046;73.266;2023-02-01T07:54:23;66.45;;;23.60;;
59167;SDS011;44948;55.046;73.266;2023-02-01T07:56:12;60.83;;;22.98;;
59167;SDS011;44948;55.046;73.266;2023-02-01T07:57:56;61.35;;;20.90;;
59167;SDS011;44948;55.046;73.266;2023-02-01T07:59:38;64.63;;;22.23;;
59167;SDS011;44948;55.046;73.266;2023-02-01T08:01:43;56.58;;;20.45;;
59167;SDS011;44948;55.046;73.266;2023-02-01T08:03:24;56.85;;;20.48;;
59167;SDS011;44948;55.046;73.266;2023-02-01T08:05:06;65.68;;;22.80;;
59167;SDS011;44948;55.046;73.266;2023-02-01T08:06:48;51.67;;;21.92;;
59167;SDS011;44948;55.046;73.266;2023-02-01T08:08:31;51.45;;;19.17;;
59167;SDS011;44948;55.046;73.266;2023-02-01T08:10:13;60.10;;;21.63;;
59167;SDS011;44948;55.046;73.266;2023-02-01T08:11:55;66.25;;;21.52;;
59167;SDS011;44948;55.046;73.266;2023-02-01T08:13:37;61.13;;;21.73;;
59167;SDS011;44948;55.046;73.266;2023-02-01T08:15:19;68.85;;;24.17;;
59167;SDS011;44948;55.046;73.266;2023-02-01T08:17:01;79.00;;;25.70;;
59167;SDS011;44948;55.046;73.266;2023-02-01T08:18:43;64.20;;;24.77;;
59167;SDS011;44948;55.046;73.266;2023-02-01T08:20:25;77.88;;;27.10;;
59167;SDS011;44948;55.046;73.266;2023-02-01T08:22:09;68.30;;;23.25;;
59167;SDS011;44948;55.046;73.266;2023-02-01T08:23:51;76.38;;;26.42;;
59167;SDS011;44948;55.046;73.266;2023-02-01T08:25:33;58.70;;;21.23;;
59167;SDS011;44948;55.046;73.266;2023-02-01T08:27:16;68.47;;;24.52;;
59167;SDS011;44948;55.046;73.266;2023-02-01T08:28:58;63.10;;;23.20;;
59167;SDS011;44948;55.046;73.266;2023-02-01T08:30:40;69.60;;;25.38;;
59167;SDS011;44948;55.046;73.266;2023-02-01T08:32:25;69.88;;;24.48;;
59167;SDS011;44948;55.046;73.266;2023-02-01T08:34:07;71.60;;;27.83;;
59167;SDS011;44948;55.046;73.266;2023-02-01T08:35:49;82.55;;;27.42;;
59167;SDS011;44948;55.046;73.266;2023-02-01T08:37:31;86.00;;;26.75;;
59167;SDS011;44948;55.046;73.266;2023-02-01T08:39:13;66.63;;;24.30;;
59167;SDS011;44948;55.046;73.266;2023-02-01T08:40:55;85.18;;;27.95;;
59167;SDS011;44948;55.046;73.266;2023-02-01T08:42:37;73.60;;;25.42;;
59167;SDS011;44948;55.046;73.266;2023-02-01T08:44:34;76.72;;;27.77;;
59167;SDS011;44948;55.046;73.266;2023-02-01T08:46:16;62.20;;;21.10;;
59167;SDS011;44948;55.046;73.266;2023-02-01T08:48:01;52.20;;;20.63;;
59167;SDS011;44948;55.046;73.266;2023-02-01T08:49:43;52.38;;;20.42;;
59167;SDS011;44948;55.046;73.266;2023-02-01T08:51:26;55.85;;;22.77;;
59167;SDS011;44948;55.046;73.266;2023-02-01T08:53:08;52.13;;;20.60;;
59167;SDS011;44948;55.046;73.266;2023-02-01T08:54:50;90.65;;;30.35;;
59167;SDS011;44948;55.046;73.266;2023-02-01T08:56:32;106.70;;;34.03;;
59167;SDS011;44948;55.046;73.266;2023-02-01T08:58:14;98.28;;;34.72;;
59167;SDS011;44948;55.046;73.266;2023-02-01T08:59:58;105.78;;;34.72;;
59167;SDS011;44948;55.046;73.266;2023-02-01T09:01:40;109.20;;;34.83;;
59167;SDS011;44948;55.046;73.266;2023-02-01T09:03:23;58.00;;;17.80;;
59167;SDS011;44948;55.046;73.266;2023-02-01T09:05:05;65.85;;;22.98;;
59167;SDS011;44948;55.046;73.266;2023-02-01T09:06:47;61.10;;;21.50;;
59167;SDS011;44948;55.046;73.266;2023-02-01T09:08:31;68.40;;;25.40;;
59167;SDS011;44948;55.046;73.266;2023-02-01T09:10:13;83.40;;;29.58;;
59167;SDS011;44948;55.046;73.266;2023-02-01T09:11:55;71.60;;;25.27;;
59167;SDS011;44948;55.046;73.266;2023-02-01T09:13:37;61.72;;;23.17;;
59167;SDS011;44948;55.046;73.266;2023-02-01T09:15:19;59.63;;;21.33;;
59167;SDS011;44948;55.046;73.266;2023-02-01T09:17:01;70.57;;;25.67;;
59167;SDS011;44948;55.046;73.266;2023-02-01T09:18:42;73.32;;;29.00;;
59167;SDS011;44948;55.046;73.266;2023-02-01T09:20:24;66.07;;;23.23;;
59167;SDS011;44948;55.046;73.266;2023-02-01T09:22:06;72.50;;;26.95;;
59167;SDS011;44948;55.046;73.266;2023-02-01T09:23:48;78.45;;;28.55;;
59167;SDS011;44948;55.046;73.266;2023-02-01T09:27:12;104.90;;;30.83;;
59167;SDS011;44948;55.046;73.266;2023-02-01T09:28:54;122.40;;;34.55;;
59167;SDS011;44948;55.046;73.266;2023-02-01T09:30:36;77.50;;;27.23;;
59167;SDS011;44948;55.046;73.266;2023-02-01T09:32:19;73.15;;;23.95;;
59167;SDS011;44948;55.046;73.266;2023-02-01T09:34:02;73.03;;;24.55;;
59167;SDS011;44948;55.046;73.266;2023-02-01T09:35:44;65.50;;;21.00;;
59167;SDS011;44948;55.046;73.266;2023-02-01T09:37:26;70.47;;;23.85;;
59167;SDS011;44948;55.046;73.266;2023-02-01T09:39:07;59.78;;;20.33;;
59167;SDS011;44948;55.046;73.266;2023-02-01T09:40:49;57.88;;;21.88;;
59167;SDS011;44948;55.046;73.266;2023-02-01T09:42:44;68.32;;;23.52;;
59167;SDS011;44948;55.046;73.266;2023-02-01T09:46:29;55.95;;;19.40;;
59167;SDS011;44948;55.046;73.266;2023-02-01T09:48:13;57.80;;;19.08;;
59167;SDS011;44948;55.046;73.266;2023-02-01T09:50:11;56.72;;;19.52;;
59167;SDS011;44948;55.046;73.266;2023-02-01T09:52:01;52.47;;;19.52;;
59167;SDS011;44948;55.046;73.266;2023-02-01T09:53:48;56.55;;;20.20;;
59167;SDS011;44948;55.046;73.266;2023-02-01T09:55:36;55.92;;;20.92;;
59167;SDS011;44948;55.046;73.266;2023-02-01T09:57:22;57.67;;;23.90;;
59167;SDS011;44948;55.046;73.266;2023-02-01T09:59:21;250.05;;;86.15;;
59167;SDS011;44948;55.046;73.266;2023-02-01T10:01:08;105.60;;;37.10;;
59167;SDS011;44948;55.046;73.266;2023-02-01T10:02:51;290.33;;;105.40;;
59167;SDS011;44948;55.046;73.266;2023-02-01T10:04:35;212.35;;;70.93;;
59167;SDS011;44948;55.046;73.266;2023-02-01T10:08:19;248.15;;;84.43;;
59167;SDS011;44948;55.046;73.266;2023-02-01T10:10:15;78.53;;;29.40;;
59167;SDS011;44948;55.046;73.266;2023-02-01T10:13:59;80.20;;;31.20;;
59167;SDS011;44948;55.046;73.266;2023-02-01T10:15:59;72.00;;;23.17;;
59167;SDS011;44948;55.046;73.266;2023-02-01T10:28:49;50.28;;;19.77;;
59167;SDS011;44948;55.046;73.266;2023-02-01T10:30:34;68.07;;;23.48;;
59167;SDS011;44948;55.046;73.266;2023-02-01T10:32:23;56.08;;;18.77;;
59167;SDS011;44948;55.046;73.266;2023-02-01T10:36:13;65.07;;;24.65;;
59167;SDS011;44948;55.046;73.266;2023-02-01T10:37:55;66.85;;;22.88;;
59167;SDS011;44948;55.046;73.266;2023-02-01T10:39:38;63.08;;;23.40;;
59167;SDS011;44948;55.046;73.266;2023-02-01T10:41:20;54.67;;;20.20;;
59167;SDS011;44948;55.046;73.266;2023-02-01T10:43:03;59.88;;;19.85;;
59167;SDS011;44948;55.046;73.266;2023-02-01T10:44:45;65.15;;;23.92;;